Time;durP1;ratioP1;P1;durP2;ratioP2;P2;SDS_P1;SDS_P2;PMS_P1;PMS_P2;Temp;Humidity;BMP_temperature;BMP_pressure;BME280_temperature;BME280_humidity;BME280_pressure;Samples;Min_cycle;Max_cycle;Signal;HPM_P1;HPM_P2
2023/12/11 00:02:24;;;;;;;;;1.25;0.00;;;;;13.01;79.23;100305.59;5021997;28;45356;-78
2023/12/11 00:04:49;;;;;;;;;3.50;0.00;;;;;12.95;78.89;100299.13;5043911;28;45359;-78
2023/12/11 00:07:14;;;;;;;;;0.00;0.00;;;;;12.97;78.70;100296.28;5051130;28;45080;-79
2023/12/11 00:09:40;;;;;;;;;0.00;0.00;;;;;12.95;78.96;100290.28;5053503;28;45263;-78
2023/12/11 00:12:05;;;;;;;;;1.00;0.00;;;;;12.93;78.65;100289.63;5042683;28;45407;-77
2023/12/11 00:14:30;;;;;;;;;0.25;0.00;;;;;12.93;78.76;100285.13;5045236;28;45399;-78
2023/12/11 00:16:56;;;;;;;;;0.00;0.00;;;;;12.75;78.38;100249.81;5049827;28;45431;-78
2023/12/11 00:19:21;;;;;;;;;0.00;0.00;;;;;12.60;78.60;100240.81;5040331;28;51764;-77
2023/12/11 00:21:47;;;;;;;;;0.00;0.00;;;;;12.83;78.38;100278.31;5042283;28;45475;-78
2023/12/11 00:24:13;;;;;;;;;0.33;0.00;;;;;12.80;78.50;100266.13;5036538;28;45273;-77
2023/12/11 00:26:39;;;;;;;;;1.00;1.00;;;;;12.51;78.23;100231.19;5028748;28;45539;-78
2023/12/11 00:29:04;;;;;;;;;0.67;0.67;;;;;12.84;78.45;100267.47;5030050;28;46044;-78
2023/12/11 00:31:30;;;;;;;;;0.67;0.00;;;;;12.73;77.73;100251.81;5037208;28;45288;-80
2023/12/11 00:33:55;;;;;;;;;1.00;1.00;;;;;12.79;78.06;100275.97;5040584;28;45256;-77
2023/12/11 00:36:20;;;;;;;;;0.67;0.67;;;;;12.64;78.02;100252.84;5035560;28;45367;-76
2023/12/11 00:38:46;;;;;;;;;0.33;0.33;;;;;12.78;77.66;100266.31;5034571;28;46219;-78
2023/12/11 00:41:11;;;;;;;;;1.33;0.67;;;;;12.75;77.56;100276.47;5040633;28;45382;-76
2023/12/11 00:43:37;;;;;;;;;0.67;0.67;;;;;12.73;77.63;100270.47;5039506;28;45618;-79
2023/12/11 00:46:02;;;;;;;;;2.75;0.50;;;;;12.72;77.75;100279.50;5052660;28;44986;-77
2023/12/11 00:48:28;;;;;;;;;0.67;0.67;;;;;12.63;78.10;100267.19;5051554;28;45683;-76
2023/12/11 00:50:53;;;;;;;;;2.00;0.33;;;;;12.69;77.77;100280.66;5043221;28;45584;-77
2023/12/11 00:53:18;;;;;;;;;2.00;2.00;;;;;12.60;77.31;100265.66;5045692;28;45502;-79
2023/12/11 00:55:44;;;;;;;;;0.00;0.00;;;;;12.66;77.31;100275.66;5042296;28;45435;-77
2023/12/11 00:58:09;;;;;;;;;1.33;1.00;;;;;12.48;77.59;100251.03;5044526;28;45606;-77
2023/12/11 01:00:34;;;;;;;;;2.00;1.33;;;;;12.65;77.79;100270.50;5023558;28;45340;-81
2023/12/11 01:03:00;;;;;;;;;4.33;2.00;;;;;12.51;77.64;100236.53;5034924;28;45541;-79
2023/12/11 01:05:26;;;;;;;;;2.25;0.75;;;;;12.52;77.61;100254.19;5045611;28;45582;-80
2023/12/11 01:07:51;;;;;;;;;4.67;1.00;;;;;12.45;77.34;100249.53;5037200;28;45574;-78
2023/12/11 01:10:16;;;;;;;;;1.33;1.33;;;;;12.38;77.28;100221.03;5036340;28;45403;-78
2023/12/11 01:12:42;;;;;;;;;0.50;0.50;;;;;12.56;77.20;100282.16;5016348;28;45344;-79
2023/12/11 01:15:08;;;;;;;;;3.67;2.00;;;;;12.55;77.42;100291.19;5040695;28;45436;-79
2023/12/11 01:17:33;;;;;;;;;1.75;1.75;;;;;12.45;77.23;100281.53;5051870;28;45377;-80
2023/12/11 01:19:59;;;;;;;;;3.33;1.33;;;;;12.56;77.35;100291.00;5051312;28;45470;-80
2023/12/11 01:22:24;;;;;;;;;0.00;0.00;;;;;12.28;77.25;100242.53;5034187;28;44975;-78
2023/12/11 01:24:50;;;;;;;;;1.00;1.00;;;;;12.55;77.38;100297.34;5030918;28;45327;-80
2023/12/11 01:27:15;;;;;;;;;5.00;2.00;;;;;12.46;77.24;100293.84;5015066;28;45655;-79
2023/12/11 01:29:40;;;;;;;;;1.25;1.00;;;;;12.54;77.02;100310.84;5049455;28;45130;-79
2023/12/11 01:32:06;;;;;;;;;4.33;1.33;;;;;12.40;77.68;100309.66;5049366;28;44952;-78
2023/12/11 01:34:31;;;;;;;;;3.67;1.00;;;;;12.53;77.36;100317.19;5050252;28;45271;-80
2023/12/11 01:36:57;;;;;;;;;1.00;1.00;;;;;12.53;77.28;100301.19;5049653;28;45397;-76
2023/12/11 01:39:22;;;;;;;;;3.33;1.00;;;;;12.55;77.31;100299.16;5046530;28;45332;-76
2023/12/11 01:41:47;;;;;;;;;2.00;2.00;;;;;12.55;77.44;100276.00;5051604;28;44971;-75
2023/12/11 01:44:13;;;;;;;;;0.00;0.00;;;;;12.56;77.09;100287.50;5033110;28;45432;-74
2023/12/11 01:46:39;;;;;;;;;0.00;0.00;;;;;12.51;77.20;100289.84;5046910;28;46075;-76
2023/12/11 01:49:05;;;;;;;;;1.25;0.50;;;;;12.60;77.16;100305.66;5045771;28;45444;-76
2023/12/11 01:51:30;;;;;;;;;2.00;0.00;;;;;12.62;76.62;100313.53;5042565;28;45548;-75
2023/12/11 01:53:56;;;;;;;;;0.00;0.00;;;;;12.64;77.14;100303.53;5036662;28;45439;-75
2023/12/11 01:56:21;;;;;;;;;3.00;1.00;;;;;12.58;76.49;100301.50;5053267;28;45108;-75
2023/12/11 01:58:48;;;;;;;;;0.33;0.33;;;;;12.61;76.67;100307.31;5040837;28;45249;-75
2023/12/11 02:01:16;;;;;;;;;1.67;0.67;;;;;12.69;76.50;100314.50;5050863;28;45075;-73
2023/12/11 02:03:41;;;;;;;;;2.67;1.33;;;;;12.66;77.02;100293.50;5048347;28;45865;-73
2023/12/11 02:06:07;;;;;;;;;1.00;1.00;;;;;12.69;76.44;100288.66;5044183;28;46053;-75
2023/12/11 02:08:32;;;;;;;;;3.25;0.50;;;;;12.56;77.11;100255.50;5045417;28;45644;-78
2023/12/11 02:10:58;;;;;;;;;4.00;1.00;;;;;12.74;76.41;100282.81;5019699;28;45548;-77
2023/12/11 02:13:23;;;;;;;;;5.50;4.50;;;;;12.41;76.08;100226.88;5050428;28;45344;-77
2023/12/11 02:15:50;;;;;;;;;5.00;1.67;;;;;12.73;76.57;100273.97;5036201;28;46120;-77
2023/12/11 02:18:16;;;;;;;;;4.00;2.00;;;;;12.72;76.38;100271.50;5038024;28;45315;-74
2023/12/11 02:20:43;;;;;;;;;2.75;1.50;;;;;12.73;76.71;100278.50;5041035;28;46746;-76
2023/12/11 02:23:26;;;;;;;;;1.75;1.75;;;;;12.71;76.82;100276.00;5041979;28;45340;-77
2023/12/11 02:26:16;;;;;;;;;3.00;1.00;;;;;12.57;76.70;100246.50;5035702;28;46474;-75
2023/12/11 02:28:42;;;;;;;;;2.00;1.00;;;;;12.58;76.24;100245.50;5006045;28;44920;-78
2023/12/11 02:31:07;;;;;;;;;3.25;2.00;;;;;12.57;76.05;100227.84;5048673;28;45618;-75
2023/12/11 02:33:33;;;;;;;;;1.50;1.00;;;;;12.65;76.17;100227.84;5038361;28;45250;-75
2023/12/11 02:35:58;;;;;;;;;0.50;0.50;;;;;12.77;76.30;100253.13;5034150;28;45657;-75
2023/12/11 02:38:27;;;;;;;;;1.25;0.50;;;;;12.78;76.45;100254.78;5048421;28;45211;-77
2023/12/11 02:40:52;;;;;;;;;4.00;1.00;;;;;12.48;76.25;100213.69;5041799;28;45389;-75
2023/12/11 02:43:17;;;;;;;;;1.33;1.33;;;;;12.78;76.24;100244.13;5038017;28;45478;-74
2023/12/11 02:45:43;;;;;;;;;1.67;1.67;;;;;12.71;76.40;100225.31;5039543;28;46069;-79
2023/12/11 02:48:09;;;;;;;;;1.67;0.67;;;;;12.74;76.43;100226.81;5027255;28;45621;-76
2023/12/11 02:50:34;;;;;;;;;3.00;2.00;;;;;12.77;76.29;100242.47;5021067;28;45540;-77
2023/12/11 02:53:02;;;;;;;;;3.00;0.00;;;;;12.82;76.50;100250.81;5031076;28;45358;-80
2023/12/11 02:55:28;;;;;;;;;4.67;3.00;;;;;12.67;76.64;100216.00;5045084;28;45554;-80
2023/12/11 02:58:01;;;;;;;;;2.67;0.67;;;;;12.79;76.32;100245.78;5029157;28;44814;-76
2023/12/11 03:00:28;;;;;;;;;0.67;0.67;;;;;12.83;76.30;100247.13;5045141;28;45480;-77
2023/12/11 03:02:54;;;;;;;;;3.00;1.00;;;;;12.82;76.38;100233.97;5028355;28;44972;-77
2023/12/11 03:05:19;;;;;;;;;1.33;1.33;;;;;12.80;76.33;100244.78;5021092;28;46077;-78
2023/12/11 03:07:44;;;;;;;;;2.00;0.50;;;;;12.80;76.25;100231.44;5020456;28;45364;-79
2023/12/11 03:10:10;;;;;;;;;1.33;1.33;;;;;12.79;76.61;100248.47;5020335;28;45323;-81
2023/12/11 03:12:35;;;;;;;;;3.33;1.33;;;;;12.79;76.46;100245.78;5037662;28;45766;-77
2023/12/11 03:15:02;;;;;;;;;2.00;0.50;;;;;12.69;76.61;100232.66;5042141;28;45348;-78
2023/12/11 03:17:27;;;;;;;;;2.67;1.00;;;;;12.82;76.12;100231.31;5038237;28;45564;-75
2023/12/11 03:19:53;;;;;;;;;3.67;2.00;;;;;12.82;76.28;100226.81;5041402;28;45268;-79
2023/12/11 03:22:19;;;;;;;;;3.33;1.00;;;;;12.87;76.65;100228.94;5037451;28;45464;-79
2023/12/11 03:24:44;;;;;;;;;1.00;1.00;;;;;12.88;76.47;100228.78;5040043;28;46308;-75
2023/12/11 03:27:09;;;;;;;;;2.00;1.00;;;;;12.89;76.36;100222.44;5034012;28;45268;-74
2023/12/11 03:29:35;;;;;;;;;1.67;1.00;;;;;12.91;76.39;100216.94;5034676;28;47806;-79
2023/12/11 03:32:00;;;;;;;;;2.00;0.50;;;;;12.91;76.09;100217.75;5036192;28;45493;-79
2023/12/11 03:34:26;;;;;;;;;0.00;0.00;;;;;12.90;76.26;100202.75;5036316;28;45425;-77
2023/12/11 03:36:51;;;;;;;;;2.67;0.00;;;;;12.89;76.15;100203.75;5036453;28;45656;-79
2023/12/11 03:39:16;;;;;;;;;2.00;0.67;;;;;12.59;76.34;100168.00;5047288;28;45527;-77
2023/12/11 03:41:44;;;;;;;;;3.00;2.00;;;;;12.71;76.24;100195.16;5037587;28;45431;-76
2023/12/11 03:44:09;;;;;;;;;1.00;1.00;;;;;12.70;76.30;100196.16;5035312;28;45640;-76
2023/12/11 03:46:35;;;;;;;;;3.00;2.00;;;;;12.80;75.99;100183.44;5035780;28;45454;-77
2023/12/11 03:49:00;;;;;;;;;4.67;2.33;;;;;12.79;76.11;100182.59;5040682;28;45466;-80
2023/12/11 03:51:25;;;;;;;;;1.67;1.67;;;;;12.66;76.44;100137.00;5052142;28;45011;-76
2023/12/11 03:53:51;;;;;;;;;3.50;2.00;;;;;12.88;76.37;100156.75;5035562;28;47840;-78
2023/12/11 03:56:16;;;;;;;;;2.00;1.00;;;;;12.81;76.48;100163.75;5037594;28;45411;-76
2023/12/11 03:58:41;;;;;;;;;0.67;0.67;;;;;12.93;76.42;100191.72;5048098;28;47125;-78
2023/12/11 04:01:07;;;;;;;;;1.67;1.67;;;;;12.99;76.43;100215.03;5036623;28;45416;-79
2023/12/11 04:03:32;;;;;;;;;3.00;2.33;;;;;13.00;76.32;100222.03;5038326;28;46295;-79
2023/12/11 04:05:57;;;;;;;;;1.33;0.67;;;;;12.97;76.52;100193.03;5038688;28;45540;-78
2023/12/11 04:08:23;;;;;;;;;1.67;1.67;;;;;13.00;76.21;100200.69;5036960;28;45458;-77
2023/12/11 04:10:48;;;;;;;;;1.33;0.67;;;;;13.05;76.47;100225.06;5035188;28;45486;-78
2023/12/11 04:13:14;;;;;;;;;5.33;1.00;;;;;12.94;76.00;100173.88;5032856;28;46097;-76
2023/12/11 04:15:39;;;;;;;;;2.67;1.33;;;;;12.90;76.21;100165.41;5050915;28;45186;-74
2023/12/11 04:18:04;;;;;;;;;3.00;1.00;;;;;12.94;76.31;100169.38;5048048;28;45131;-76
2023/12/11 04:20:30;;;;;;;;;1.00;1.00;;;;;13.01;76.61;100182.84;5029404;28;45045;-78
2023/12/11 04:22:55;;;;;;;;;2.33;1.00;;;;;12.97;76.27;100185.03;5033423;28;45659;-75
2023/12/11 04:25:21;;;;;;;;;1.67;1.00;;;;;12.97;76.30;100184.22;5037549;28;45742;-73
2023/12/11 04:27:46;;;;;;;;;0.67;0.67;;;;;12.99;76.65;100193.69;5040835;28;45474;-73
2023/12/11 04:30:12;;;;;;;;;1.00;1.00;;;;;13.02;76.23;100189.88;5045207;28;45491;-76
2023/12/11 04:32:37;;;;;;;;;2.67;1.33;;;;;13.01;76.45;100191.72;5036584;28;45606;-76
2023/12/11 04:35:03;;;;;;;;;3.00;1.67;;;;;13.01;76.66;100204.19;5034026;28;45393;-78
2023/12/11 04:37:28;;;;;;;;;2.33;0.67;;;;;12.87;76.47;100163.09;5035991;28;45650;-76
2023/12/11 04:39:54;;;;;;;;;4.67;3.67;;;;;12.84;76.54;100141.25;5035296;28;45391;-75
2023/12/11 04:42:19;;;;;;;;;2.33;0.33;;;;;12.95;76.38;100172.88;5034286;28;46160;-75
2023/12/11 04:44:44;;;;;;;;;2.75;2.00;;;;;13.01;76.56;100190.84;5039464;28;45706;-75
2023/12/11 04:47:10;;;;;;;;;2.00;0.67;;;;;12.99;76.27;100174.19;5018811;28;45389;-74
2023/12/11 04:49:35;;;;;;;;;2.50;1.50;;;;;13.01;76.57;100174.84;5035630;28;45331;-73
2023/12/11 04:52:00;;;;;;;;;1.00;1.00;;;;;13.03;76.51;100156.84;5035787;28;45591;-73
2023/12/11 04:54:26;;;;;;;;;1.33;0.33;;;;;12.89;76.52;100137.06;5035188;28;45400;-75
2023/12/11 04:56:51;;;;;;;;;2.67;2.00;;;;;12.93;76.71;100132.19;5039348;28;45566;-76
2023/12/11 04:59:16;;;;;;;;;3.67;2.00;;;;;12.98;76.59;100154.69;5015678;28;45620;-74
2023/12/11 05:01:42;;;;;;;;;0.67;0.67;;;;;12.72;76.35;100138.13;5026101;28;46339;-79
2023/12/11 05:04:07;;;;;;;;;2.67;1.00;;;;;13.01;76.45;100191.72;5037660;28;45426;-80
2023/12/11 05:06:32;;;;;;;;;5.00;2.00;;;;;13.03;76.50;100197.72;5048625;28;45033;-79
2023/12/11 05:08:58;;;;;;;;;4.75;2.00;;;;;13.00;76.46;100206.03;5036422;28;45281;-77
2023/12/11 05:11:23;;;;;;;;;3.67;2.33;;;;;13.07;76.19;100207.03;5044906;28;45163;-78
2023/12/11 05:13:48;;;;;;;;;3.33;0.67;;;;;13.06;76.38;100205.38;5046836;28;45612;-74
2023/12/11 05:16:14;;;;;;;;;2.50;0.75;;;;;13.05;76.34;100209.03;5045311;28;45017;-78
2023/12/11 05:18:39;;;;;;;;;1.33;1.00;;;;;13.06;76.37;100200.03;5034683;28;45463;-76
2023/12/11 05:21:06;;;;;;;;;2.33;1.33;;;;;12.94;76.35;100181.88;5037575;28;45163;-75
2023/12/11 05:23:32;;;;;;;;;0.50;0.50;;;;;13.07;76.34;100201.69;5046572;28;45388;-75
2023/12/11 05:25:57;;;;;;;;;2.00;2.00;;;;;13.04;76.28;100188.69;5046083;28;45434;-74
2023/12/11 05:28:22;;;;;;;;;1.00;1.00;;;;;13.10;76.25;100204.00;5050721;28;45007;-75
2023/12/11 05:30:48;;;;;;;;;3.33;3.33;;;;;13.03;76.22;100187.03;5054932;28;45074;-76
2023/12/11 05:33:13;;;;;;;;;5.33;2.00;;;;;13.05;76.25;100190.34;5052246;28;44970;-77
2023/12/11 05:35:38;;;;;;;;;3.67;1.33;;;;;13.17;76.03;100216.66;5048658;28;45656;-76
2023/12/11 05:38:04;;;;;;;;;2.00;1.00;;;;;13.10;75.79;100196.00;5054539;28;45147;-75
2023/12/11 05:40:29;;;;;;;;;4.00;2.00;;;;;13.14;75.97;100195.66;5051006;28;45305;-75
2023/12/11 05:42:54;;;;;;;;;1.33;0.67;;;;;13.21;75.98;100202.81;5055710;28;53093;-74
2023/12/11 05:45:20;;;;;;;;;1.50;0.25;;;;;13.18;75.69;100195.16;5045683;28;45366;-75
2023/12/11 05:47:46;;;;;;;;;3.00;0.67;;;;;13.28;75.57;100200.28;5048498;28;45086;-79
2023/12/11 05:50:12;;;;;;;;;1.67;1.67;;;;;13.31;75.49;100219.47;5046554;28;45510;-76
2023/12/11 05:52:37;;;;;;;;;1.33;1.33;;;;;13.16;75.02;100174.94;5043277;28;45363;-74
2023/12/11 05:55:03;;;;;;;;;1.67;1.33;;;;;13.22;75.20;100203.66;5021938;28;45576;-76
2023/12/11 05:57:29;;;;;;;;;0.33;0.33;;;;;13.29;75.07;100224.16;5028601;28;45236;-74
2023/12/11 05:59:54;;;;;;;;;6.67;2.00;;;;;13.08;74.83;100173.16;5028718;28;45587;-75
2023/12/11 06:02:19;;;;;;;;;3.00;1.33;;;;;13.30;74.95;100216.97;5045115;28;45461;-77
2023/12/11 06:04:45;;;;;;;;;3.00;1.33;;;;;13.02;74.86;100166.69;5042052;28;45547;-74
2023/12/11 06:07:10;;;;;;;;;2.25;0.25;;;;;13.26;74.81;100195.13;5019378;28;45296;-76
2023/12/11 06:09:35;;;;;;;;;0.75;0.75;;;;;13.35;74.55;100233.28;5023900;28;46555;-75
2023/12/11 06:12:01;;;;;;;;;1.67;0.67;;;;;13.28;74.60;100216.31;5050309;28;45080;-77
2023/12/11 06:14:26;;;;;;;;;1.00;1.00;;;;;13.35;74.76;100241.28;5034120;28;45104;-75
2023/12/11 06:16:51;;;;;;;;;3.00;1.00;;;;;13.33;74.59;100206.75;5025860;28;45426;-74
2023/12/11 06:19:17;;;;;;;;;3.33;1.67;;;;;13.38;74.58;100222.25;5035539;28;46015;-80
2023/12/11 06:21:43;;;;;;;;;2.33;2.00;;;;;13.38;74.36;100224.91;5048242;28;45124;-74
2023/12/11 06:24:08;;;;;;;;;3.00;0.00;;;;;13.40;74.66;100238.94;5051758;28;45431;-75
2023/12/11 06:26:35;;;;;;;;;2.33;1.33;;;;;13.41;74.34;100245.94;5028348;28;45929;-77
2023/12/11 06:29:00;;;;;;;;;2.67;1.00;;;;;13.28;74.18;100224.31;5036978;28;45701;-75
2023/12/11 06:31:28;;;;;;;;;1.00;1.00;;;;;13.44;74.16;100240.28;5036949;28;45520;-80
2023/12/11 06:33:54;;;;;;;;;2.00;1.00;;;;;13.46;74.04;100243.59;5038266;28;45586;-77
2023/12/11 06:36:21;;;;;;;;;1.33;1.33;;;;;13.46;74.09;100243.59;5040129;28;45811;-77
2023/12/11 06:38:48;;;;;;;;;1.00;1.00;;;;;13.26;73.51;100221.00;5052363;28;46662;-78
2023/12/11 06:41:13;;;;;;;;;3.33;3.00;;;;;13.32;73.79;100247.00;5040639;28;45533;-77
2023/12/11 06:43:38;;;;;;;;;2.50;2.50;;;;;13.38;73.57;100267.63;5036302;28;45609;-77
2023/12/11 06:46:04;;;;;;;;;0.00;0.00;;;;;13.28;73.84;100249.19;5034505;28;45376;-79
2023/12/11 06:48:30;;;;;;;;;3.50;1.50;;;;;13.20;73.64;100237.69;5035371;28;45586;-79
2023/12/11 06:50:56;;;;;;;;;0.75;0.75;;;;;13.40;73.91;100254.94;5035904;28;45485;-79
2023/12/11 06:53:22;;;;;;;;;1.00;1.00;;;;;13.40;73.80;100241.59;5038076;28;45303;-78
2023/12/11 06:55:47;;;;;;;;;1.75;0.75;;;;;13.42;73.50;100257.47;5037246;28;45564;-82
2023/12/11 06:58:12;;;;;;;;;1.00;1.00;;;;;13.37;73.84;100233.94;5036572;28;46026;-80
2023/12/11 07:00:38;;;;;;;;;0.67;0.67;;;;;13.25;73.68;100222.00;5036716;28;45370;-77
2023/12/11 07:03:03;;;;;;;;;2.33;1.00;;;;;13.30;73.55;100230.31;5044656;28;45564;-76
2023/12/11 07:05:29;;;;;;;;;1.67;1.67;;;;;13.47;73.63;100265.78;5036994;28;44874;-78
2023/12/11 07:07:54;;;;;;;;;5.67;3.00;;;;;13.47;73.54;100265.78;5036471;28;45491;-79
2023/12/11 07:10:19;;;;;;;;;0.00;0.00;;;;;13.48;73.29;100264.78;5035663;28;45451;-79
2023/12/11 07:12:45;;;;;;;;;2.33;0.67;;;;;13.49;73.32;100283.28;5015608;28;45318;-79
2023/12/11 07:15:12;;;;;;;;;3.00;0.75;;;;;13.49;73.38;100272.63;5029163;28;45516;-78
2023/12/11 07:17:37;;;;;;;;;3.00;1.50;;;;;13.38;73.37;100268.47;5036659;28;45741;-82
2023/12/11 07:20:04;;;;;;;;;3.67;1.00;;;;;13.47;73.24;100284.47;5019497;28;45418;-81
2023/12/11 07:22:31;;;;;;;;;2.67;1.00;;;;;13.47;73.58;100298.66;5036203;28;45558;-84
2023/12/11 07:24:56;;;;;;;;;1.33;1.00;;;;;13.47;73.51;100298.66;5039014;28;45398;-80
2023/12/11 07:27:22;;;;;;;;;3.00;3.00;;;;;13.00;73.00;100210.53;5037029;28;45408;-83
2023/12/11 07:29:47;;;;;;;;;3.33;1.00;;;;;13.44;73.09;100300.84;5043740;28;45379;-80
2023/12/11 07:32:13;;;;;;;;;4.00;1.33;;;;;13.24;72.97;100276.41;5057791;28;45490;-81
2023/12/11 07:34:38;;;;;;;;;1.67;0.67;;;;;13.40;73.25;100308.34;5057219;28;45218;-81
2023/12/11 07:37:03;;;;;;;;;1.33;0.33;;;;;13.38;73.25;100318.38;5057143;28;45401;-79
2023/12/11 07:39:30;;;;;;;;;1.25;0.75;;;;;13.20;73.61;100304.41;5039848;28;45363;-81
2023/12/11 07:41:55;;;;;;;;;1.00;1.00;;;;;12.99;73.44;100275.59;5036596;28;45445;-81
2023/12/11 07:44:21;;;;;;;;;3.00;0.50;;;;;12.84;72.94;100254.13;5035639;28;45582;-80
2023/12/11 07:46:46;;;;;;;;;4.33;3.00;;;;;12.66;73.34;100218.84;5036807;28;45496;-78
2023/12/11 07:49:15;;;;;;;;;6.00;4.00;;;;;13.15;73.52;100296.91;5041724;28;45230;-80
2023/12/11 07:51:40;;;;;;;;;4.67;3.00;;;;;13.26;73.38;100325.09;5027964;28;45426;-79
2023/12/11 07:54:06;;;;;;;;;2.67;2.33;;;;;12.62;73.23;100233.53;5036978;28;45427;-80
2023/12/11 07:56:31;;;;;;;;;1.67;0.67;;;;;13.24;73.63;100330.63;5038909;28;45624;-79
2023/12/11 07:58:56;;;;;;;;;1.50;1.50;;;;;13.18;73.36;100335.78;5033276;28;45446;-78
2023/12/11 08:01:22;;;;;;;;;2.00;1.00;;;;;13.02;73.06;100301.97;5052838;28;45347;-78
2023/12/11 08:03:47;;;;;;;;;5.67;2.67;;;;;12.14;73.25;100163.25;5051621;28;45088;-81
2023/12/11 08:06:13;;;;;;;;;1.00;1.00;;;;;12.79;73.19;100275.97;5036287;28;46314;-79
2023/12/11 08:08:44;;;;;;;;;2.00;2.00;;;;;13.24;73.23;100345.81;5039919;28;45027;-78
2023/12/11 08:11:17;;;;;;;;;3.67;2.33;;;;;13.25;72.70;100344.81;5047360;28;45336;-80
2023/12/11 08:13:44;;;;;;;;;4.00;1.33;;;;;12.76;72.88;100280.81;5053219;28;45315;-81
2023/12/11 08:16:10;;;;;;;;;1.50;1.00;;;;;13.28;72.54;100353.28;5055375;28;45193;-83
2023/12/11 08:18:35;;;;;;;;;3.00;2.33;;;;;13.28;72.73;100360.47;5056319;28;45360;-80
2023/12/11 08:21:01;;;;;;;;;2.00;2.00;;;;;13.10;72.72;100332.13;5053832;28;44934;-83
2023/12/11 08:23:27;;;;;;;;;5.00;2.00;;;;;13.26;72.44;100363.31;5044291;28;45505;-80
2023/12/11 08:25:52;;;;;;;;;2.67;2.00;;;;;13.30;72.64;100374.47;5021452;28;46052;-82
2023/12/11 08:28:18;;;;;;;;;3.67;1.67;;;;;13.32;71.86;100375.97;5042069;28;45339;-83
2023/12/11 08:30:43;;;;;;;;;3.33;2.33;;;;;13.26;72.28;100359.81;5040329;28;45545;-76
2023/12/11 08:33:08;;;;;;;;;2.50;1.25;;;;;12.67;72.17;100268.50;5036662;28;45260;-79
2023/12/11 08:35:34;;;;;;;;;7.33;3.00;;;;;13.38;72.00;100390.47;5037259;28;45225;-79
2023/12/11 08:37:59;;;;;;;;;3.67;1.33;;;;;12.84;71.89;100304.81;5036993;28;45229;-78
2023/12/11 08:40:26;;;;;;;;;7.67;2.67;;;;;13.45;72.19;100388.81;5036877;28;45586;-78
2023/12/11 08:42:51;;;;;;;;;3.75;1.00;;;;;12.79;71.47;100278.63;5038444;28;45573;-77
2023/12/11 08:45:17;;;;;;;;;5.33;3.00;;;;;13.35;71.94;100372.97;5034555;28;46092;-81
2023/12/11 08:47:42;;;;;;;;;0.67;0.67;;;;;13.46;71.52;100382.44;5035925;28;45300;-77
2023/12/11 08:50:08;;;;;;;;;3.67;3.67;;;;;13.13;71.38;100330.09;5035351;28;45348;-81
2023/12/11 08:52:34;;;;;;;;;3.33;3.33;;;;;13.61;71.43;100395.91;5036232;28;45529;-80
2023/12/11 08:55:00;;;;;;;;;3.00;1.33;;;;;13.59;71.06;100409.44;5039659;28;45401;-79
2023/12/11 08:57:25;;;;;;;;;3.67;1.67;;;;;13.04;70.87;100326.63;5041590;28;45602;-78
2023/12/11 08:59:51;;;;;;;;;3.00;3.00;;;;;13.35;71.21;100367.63;5041748;28;45331;-79
2023/12/11 09:02:16;;;;;;;;;1.50;1.00;;;;;13.64;71.19;100422.31;5034880;28;45477;-78
2023/12/11 09:04:42;;;;;;;;;4.00;3.00;;;;;12.95;70.74;100301.78;5035545;28;46246;-78
2023/12/11 09:07:09;;;;;;;;;3.33;1.00;;;;;13.49;71.18;100392.78;5016681;28;45455;-78
2023/12/11 09:09:35;;;;;;;;;1.67;1.67;;;;;13.66;70.63;100415.78;5036963;28;45249;-78
2023/12/11 09:12:01;;;;;;;;;2.00;0.00;;;;;13.55;70.92;100399.28;5034887;28;45613;-77
2023/12/11 09:14:26;;;;;;;;;3.00;1.67;;;;;13.67;70.69;100421.94;5036954;28;46269;-78
2023/12/11 09:16:51;;;;;;;;;2.33;2.33;;;;;13.67;70.65;100427.28;5035874;28;45343;-78
2023/12/11 09:19:17;;;;;;;;;3.00;2.25;;;;;13.66;70.69;100429.13;5019666;28;45481;-79
2023/12/11 09:21:42;;;;;;;;;3.33;2.33;;;;;13.64;70.83;100425.81;5046427;28;45422;-77
2023/12/11 09:24:09;;;;;;;;;3.00;1.67;;;;;13.48;70.68;100401.81;5042253;28;45631;-78
2023/12/11 09:26:35;;;;;;;;;2.33;1.00;;;;;13.60;70.71;100436.97;5034760;28;45442;-79
2023/12/11 09:29:00;;;;;;;;;3.00;1.67;;;;;13.59;70.77;100440.66;5034785;28;45517;-78
2023/12/11 09:31:26;;;;;;;;;4.67;3.33;;;;;13.49;70.82;100419.50;5042982;28;45485;-80
2023/12/11 09:33:51;;;;;;;;;2.33;1.33;;;;;13.53;70.53;100439.50;5049140;28;45947;-78
2023/12/11 09:36:18;;;;;;;;;6.00;4.00;;;;;13.47;70.91;100445.53;5042407;28;45724;-81
2023/12/11 09:38:43;;;;;;;;;3.33;3.00;;;;;13.45;71.09;100444.88;5036997;28;45323;-78
2023/12/11 09:41:09;;;;;;;;;3.33;1.67;;;;;13.37;71.02;100439.53;5043763;28;45674;-81
2023/12/11 09:43:36;;;;;;;;;5.33;3.67;;;;;13.35;70.89;100446.88;5034554;28;46857;-79
2023/12/11 09:46:06;;;;;;;;;3.33;3.00;;;;;13.30;70.98;100457.25;5017628;28;45509;-81
2023/12/11 09:48:31;;;;;;;;;4.00;3.67;;;;;13.24;71.06;100455.25;5035285;28;45376;-80
2023/12/11 09:50:57;;;;;;;;;1.67;0.67;;;;;13.23;71.13;100467.78;5036715;28;45504;-81
2023/12/11 09:53:22;;;;;;;;;1.00;1.00;;;;;12.56;71.08;100359.50;5050276;28;46173;-82
2023/12/11 09:55:48;;;;;;;;;6.67;2.67;;;;;13.22;70.96;100471.44;5054622;28;44792;-80
2023/12/11 09:58:14;;;;;;;;;7.00;2.75;;;;;12.78;71.13;100410.34;5047774;28;45288;-83
2023/12/11 10:00:40;;;;;;;;;2.25;2.25;;;;;13.20;71.45;100465.41;5038987;28;45493;-80
2023/12/11 10:03:07;;;;;;;;;1.75;1.25;;;;;13.18;70.96;100474.59;5034657;28;46320;-80
2023/12/11 10:05:35;;;;;;;;;2.00;2.00;;;;;13.11;70.96;100463.72;5026905;28;45462;-80
2023/12/11 10:08:01;;;;;;;;;3.00;3.00;;;;;12.87;71.05;100431.72;5035206;28;45596;-78
2023/12/11 10:10:33;;;;;;;;;5.00;3.67;;;;;12.51;71.33;100365.34;5035978;28;45528;-77
2023/12/11 10:13:03;;;;;;;;;2.33;2.33;;;;;12.91;71.28;100436.53;5038589;28;46491;-77
2023/12/11 10:15:30;;;;;;;;;2.00;2.00;;;;;13.21;71.26;100488.44;5038410;28;45639;-77
2023/12/11 10:18:02;;;;;;;;;2.33;1.00;;;;;13.31;71.07;100507.81;5040295;28;45354;-80
2023/12/11 10:20:27;;;;;;;;;2.00;2.00;;;;;13.33;70.99;100500.47;5039634;28;45354;-77
2023/12/11 10:22:53;;;;;;;;;5.00;3.25;;;;;13.37;70.93;100495.59;5040565;28;45332;-79
2023/12/11 10:25:28;;;;;;;;;3.00;2.00;;;;;13.34;71.16;100485.28;5040664;28;45375;-78
2023/12/11 10:28:11;;;;;;;;;4.33;2.33;;;;;13.30;70.93;100473.25;5037945;28;45527;-78
2023/12/11 10:30:53;;;;;;;;;3.25;2.50;;;;;13.24;70.38;100453.41;5029747;28;45681;-76
2023/12/11 10:33:20;;;;;;;;;0.67;0.67;;;;;13.14;70.26;100430.53;5036588;28;45333;-81
2023/12/11 10:35:46;;;;;;;;;3.00;1.67;;;;;13.55;70.25;100503.44;5038082;28;45368;-78
2023/12/11 10:38:25;;;;;;;;;1.67;1.67;;;;;13.52;70.29;100479.75;5037518;28;45408;-80
2023/12/11 10:40:52;;;;;;;;;1.67;0.67;;;;;13.64;69.90;100492.59;5017702;28;45309;-80
2023/12/11 10:43:18;;;;;;;;;5.00;2.67;;;;;13.63;69.54;100485.56;5018348;28;45487;-79
2023/12/11 10:45:44;;;;;;;;;4.33;2.00;;;;;13.75;69.01;100498.56;5034409;28;45415;-78
2023/12/11 10:48:10;;;;;;;;;3.00;3.00;;;;;13.74;69.27;100491.56;5015169;28;45505;-80
2023/12/11 10:50:36;;;;;;;;;8.67;1.00;;;;;13.76;68.81;100500.22;5035796;28;45515;-80
2023/12/11 10:53:03;;;;;;;;;3.00;0.67;;;;;13.17;68.94;100400.81;5028821;28;46750;-77
2023/12/11 10:55:29;;;;;;;;;6.33;2.00;;;;;13.36;68.88;100427.19;5034774;28;45643;-78
2023/12/11 10:57:57;;;;;;;;;1.00;1.00;;;;;13.43;68.92;100430.03;5037082;28;45480;-79
2023/12/11 11:00:22;;;;;;;;;1.25;1.25;;;;;13.85;68.73;100491.19;5037842;28;45566;-80
2023/12/11 11:02:52;;;;;;;;;3.33;2.00;;;;;13.99;68.64;100506.50;5037361;28;45485;-77
2023/12/11 11:05:19;;;;;;;;;1.67;1.67;;;;;13.90;68.12;100478.16;5038368;28;45478;-80
2023/12/11 11:08:04;;;;;;;;;2.50;1.25;;;;;14.08;67.86;100500.16;5038851;28;45415;-76
2023/12/11 11:11:02;;;;;;;;;7.67;2.00;;;;;14.15;67.19;100500.28;5044889;28;44829;-80
2023/12/11 11:13:34;;;;;;;;;7.33;3.67;;;;;13.79;67.19;100430.41;5042768;28;45719;-80
2023/12/11 11:16:00;;;;;;;;;4.00;2.00;;;;;14.25;67.36;100504.44;5046746;28;45565;-79
2023/12/11 11:18:26;;;;;;;;;2.67;1.67;;;;;14.23;67.31;100490.41;5044140;28;45326;-78
2023/12/11 11:21:12;;;;;;;;;2.67;2.00;;;;;14.21;66.35;100478.19;5036405;28;44880;-78